createdAt,value
2018-03-29T00:00:37.241Z,64.14
2018-03-29T00:02:15.161Z,64.14
2018-03-29T00:03:53.124Z,64.15
2018-03-29T00:05:31.229Z,64.16
2018-03-29T00:07:09.609Z,64.15
2018-03-29T00:08:47.640Z,64.13
2018-03-29T00:10:26.442Z,64.15
2018-03-29T00:12:05.189Z,64.16
2018-03-29T00:13:44.342Z,64.20
2018-03-29T00:15:22.637Z,64.23
2018-03-29T00:17:01.009Z,64.26
2018-03-29T00:18:40.135Z,64.28
2018-03-29T00:20:18.143Z,64.29
2018-03-29T00:21:56.584Z,64.30
2018-03-29T00:23:34.086Z,64.29
2018-03-29T00:25:13.839Z,64.30
2018-03-29T00:26:51.227Z,64.32
2018-03-29T00:28:30.923Z,64.34
2018-03-29T00:30:11.935Z,64.33
2018-03-29T00:31:55.227Z,64.31
2018-03-29T00:33:32.880Z,64.29
2018-03-29T00:35:11.245Z,64.28
2018-03-29T00:36:49.047Z,64.27
2018-03-29T00:38:26.973Z,64.27
2018-03-29T00:40:06.182Z,64.27
2018-03-29T00:41:44.722Z,64.24
2018-03-29T00:43:23.281Z,64.25
2018-03-29T00:45:05.598Z,64.26
2018-03-29T00:46:43.597Z,64.28
2018-03-29T00:48:22.095Z,64.31
2018-03-29T00:50:00.474Z,64.30
2018-03-29T00:51:42.941Z,64.29
2018-03-29T00:53:46.066Z,64.32
2018-03-29T00:55:23.887Z,64.34
2018-03-29T00:57:01.957Z,64.35
2018-03-29T00:58:39.631Z,64.36
2018-03-29T01:00:19.303Z,64.38
2018-03-29T01:01:58.239Z,64.37
2018-03-29T01:03:37.151Z,64.38
2018-03-29T01:05:15.654Z,64.40
2018-03-29T01:06:54.430Z,64.41
2018-03-29T01:08:34.337Z,64.41
2018-03-29T01:10:13.240Z,64.42
2018-03-29T01:11:51.082Z,64.44
2018-03-29T01:13:30.405Z,64.45
2018-03-29T01:15:07.980Z,64.47
2018-03-29T01:17:37.779Z,64.50
2018-03-29T01:19:15.774Z,64.54
2018-03-29T01:20:53.958Z,64.56
2018-03-29T01:22:31.595Z,64.58
2018-03-29T01:24:10.152Z,64.58
2018-03-29T01:25:48.014Z,64.61
2018-03-29T01:27:25.890Z,64.62
2018-03-29T01:29:04.713Z,64.62
2018-03-29T01:30:42.905Z,64.64
2018-03-29T01:32:33.585Z,64.67
2018-03-29T01:34:11.532Z,64.69
2018-03-29T01:35:49.093Z,64.70
2018-03-29T01:37:28.079Z,64.70
2018-03-29T01:39:06.640Z,64.69
2018-03-29T01:40:44.570Z,64.68
2018-03-29T01:42:23.347Z,64.68
2018-03-29T01:44:01.688Z,64.70
2018-03-29T01:45:40.861Z,64.73
2018-03-29T01:47:18.739Z,64.76
2018-03-29T01:48:56.881Z,64.74
2018-03-29T01:50:34.616Z,64.75
2018-03-29T01:52:12.176Z,64.77
2018-03-29T01:53:50.751Z,64.80
2018-03-29T01:55:28.873Z,64.79
2018-03-29T01:57:06.759Z,64.78
2018-03-29T01:58:44.936Z,64.78
2018-03-29T02:00:22.874Z,64.80
2018-03-29T02:02:01.169Z,64.80
2018-03-29T02:03:38.862Z,64.79
2018-03-29T02:05:17.472Z,64.79
2018-03-29T02:06:55.578Z,64.79
2018-03-29T02:08:34.890Z,64.78
2018-03-29T02:10:22.611Z,64.78
2018-03-29T02:12:00.985Z,64.79
2018-03-29T02:13:39.765Z,64.79
2018-03-29T02:15:17.579Z,64.79
2018-03-29T02:16:55.102Z,64.81
2018-03-29T02:18:34.106Z,64.82
2018-03-29T02:20:12.356Z,64.84
2018-03-29T02:21:53.580Z,64.83
2018-03-29T02:23:30.912Z,64.81
2018-03-29T02:25:08.219Z,64.82
2018-03-29T02:26:46.854Z,64.82
2018-03-29T02:28:24.297Z,64.82
2018-03-29T02:30:04.571Z,64.84
2018-03-29T02:31:42.137Z,64.85
2018-03-29T02:33:20.308Z,64.87
2018-03-29T02:34:58.438Z,64.84
2018-03-29T02:36:36.370Z,64.83
2018-03-29T02:38:14.203Z,64.85
2018-03-29T02:39:52.438Z,64.87
2018-03-29T02:41:30.309Z,64.87
2018-03-29T02:43:08.178Z,64.84
2018-03-29T02:44:45.283Z,64.84
2018-03-29T02:46:23.903Z,64.86
2018-03-29T02:48:01.416Z,64.86
2018-03-29T02:49:39.380Z,64.87
2018-03-29T02:51:17.240Z,64.89
2018-03-29T02:52:55.026Z,64.89
2018-03-29T02:54:32.212Z,64.89
2018-03-29T02:56:10.314Z,64.89
2018-03-29T02:57:48.178Z,64.87
2018-03-29T02:59:25.552Z,64.88
2018-03-29T03:01:02.907Z,64.88
2018-03-29T03:02:40.107Z,64.86
2018-03-29T03:04:17.802Z,64.88
2018-03-29T03:05:55.700Z,64.89
2018-03-29T03:07:33.561Z,64.92
2018-03-29T03:09:11.098Z,64.93
2018-03-29T03:10:48.210Z,64.94
2018-03-29T03:12:25.640Z,64.95
2018-03-29T03:14:09.489Z,64.94
2018-03-29T03:15:46.933Z,64.95
2018-03-29T03:17:24.160Z,64.93
2018-03-29T03:19:01.853Z,64.95
2018-03-29T03:20:39.158Z,64.96
2018-03-29T03:22:17.569Z,64.95
2018-03-29T03:23:54.837Z,64.90
2018-03-29T03:25:37.842Z,64.85
2018-03-29T03:27:16.884Z,64.82
2018-03-29T03:28:55.826Z,64.84
2018-03-29T03:30:33.466Z,64.88
2018-03-29T03:32:11.330Z,64.91
2018-03-29T03:33:49.736Z,64.94
2018-03-29T03:35:33.507Z,64.95
2018-03-29T03:37:11.460Z,64.97
2018-03-29T03:38:53.008Z,64.97
2018-03-29T03:40:30.494Z,65.00
2018-03-29T03:42:08.367Z,65.02
2018-03-29T03:43:45.469Z,65.04
2018-03-29T03:45:23.432Z,65.04
2018-03-29T03:47:00.471Z,65.04
2018-03-29T03:48:37.648Z,65.02
2018-03-29T03:50:14.999Z,65.04
2018-03-29T03:51:53.138Z,65.07
2018-03-29T03:53:30.277Z,65.10
2018-03-29T03:55:07.508Z,65.10
2018-03-29T03:56:46.100Z,65.10
2018-03-29T03:58:24.123Z,65.11
2018-03-29T04:00:01.700Z,65.13
2018-03-29T04:01:40.119Z,65.13
2018-03-29T04:03:17.262Z,65.13
2018-03-29T04:04:54.997Z,65.12
2018-03-29T04:06:32.954Z,65.13
2018-03-29T04:08:10.283Z,65.12
2018-03-29T04:09:48.009Z,65.10
2018-03-29T04:11:25.392Z,65.10
2018-03-29T04:13:02.981Z,65.08
2018-03-29T04:14:40.310Z,65.08
2018-03-29T04:16:17.737Z,65.10
2018-03-29T04:17:55.482Z,65.12
2018-03-29T04:19:33.348Z,65.10
2018-03-29T04:21:10.582Z,65.12
2018-03-29T04:22:47.954Z,65.11
2018-03-29T04:24:25.975Z,65.14
2018-03-29T04:26:03.946Z,65.15
2018-03-29T04:27:41.363Z,65.14
2018-03-29T04:29:19.489Z,65.17
2018-03-29T04:32:39.976Z,65.14
2018-03-29T04:34:17.468Z,65.13
2018-03-29T04:35:55.178Z,65.13
2018-03-29T04:37:33.326Z,65.15
2018-03-29T04:39:12.655Z,65.16
2018-03-29T04:40:50.557Z,65.15
2018-03-29T04:42:28.445Z,65.14
2018-03-29T04:44:06.329Z,65.13
2018-03-29T04:45:43.795Z,65.15
2018-03-29T04:47:22.264Z,65.17
2018-03-29T04:48:59.961Z,65.18
2018-03-29T04:50:37.837Z,65.20
2018-03-29T04:52:15.069Z,65.21
2018-03-29T04:53:52.267Z,65.22
2018-03-29T04:55:29.856Z,65.21
2018-03-29T04:57:07.922Z,65.21
2018-03-29T04:58:46.479Z,65.21
2018-03-29T05:00:25.985Z,65.19
2018-03-29T05:02:03.532Z,65.19
2018-03-29T05:03:41.374Z,65.18
2018-03-29T05:05:19.935Z,65.16
2018-03-29T05:06:57.173Z,65.16
2018-03-29T05:08:34.601Z,65.16
2018-03-29T05:10:12.617Z,65.15
2018-03-29T05:11:50.901Z,65.16
2018-03-29T05:13:29.065Z,65.18
2018-03-29T05:15:06.526Z,65.18
2018-03-29T05:16:45.189Z,65.17
2018-03-29T05:18:23.157Z,65.17
2018-03-29T05:20:00.740Z,65.18
2018-03-29T05:21:39.552Z,65.20
2018-03-29T05:23:17.524Z,65.22
2018-03-29T05:24:55.233Z,65.23
2018-03-29T05:26:36.629Z,65.23
2018-03-29T05:28:14.711Z,65.22
2018-03-29T05:29:52.865Z,65.23
2018-03-29T05:31:30.760Z,65.24
2018-03-29T05:33:08.340Z,65.23
2018-03-29T05:34:47.252Z,65.21
2018-03-29T05:36:25.532Z,65.21
2018-03-29T05:38:02.958Z,65.22
2018-03-29T05:39:41.002Z,65.22
2018-03-29T05:41:19.067Z,65.23
2018-03-29T05:42:57.381Z,65.20
2018-03-29T05:44:35.295Z,65.17
2018-03-29T05:46:13.764Z,65.17
2018-03-29T05:47:51.527Z,65.11
2018-03-29T05:49:29.366Z,65.18
2018-03-29T05:51:07.655Z,65.17
2018-03-29T05:52:45.680Z,65.18
2018-03-29T05:54:22.983Z,65.19
2018-03-29T05:56:01.186Z,65.19
2018-03-29T05:57:38.852Z,65.20
2018-03-29T05:59:16.645Z,65.19
2018-03-29T06:00:56.227Z,65.18
2018-03-29T06:02:33.986Z,65.14
2018-03-29T06:04:11.694Z,65.14
2018-03-29T06:05:50.017Z,65.14
2018-03-29T06:07:27.906Z,65.13
2018-03-29T06:09:07.250Z,65.13
2018-03-29T06:10:46.003Z,65.13
2018-03-29T06:12:23.918Z,65.13
2018-03-29T06:14:05.354Z,65.11
2018-03-29T06:15:44.230Z,65.08
2018-03-29T06:17:26.043Z,65.07
2018-03-29T06:19:08.321Z,65.06
2018-03-29T06:20:47.189Z,65.05
2018-03-29T06:22:25.157Z,65.04
2018-03-29T06:24:03.932Z,65.01
2018-03-29T06:25:41.686Z,65.02
2018-03-29T06:27:19.495Z,65.03
2018-03-29T06:28:58.093Z,65.03
2018-03-29T06:30:36.982Z,65.02
2018-03-29T06:32:14.767Z,65.03
2018-03-29T06:33:52.756Z,65.01
2018-03-29T06:35:30.516Z,64.99
2018-03-29T06:37:08.809Z,64.99
2018-03-29T06:38:47.335Z,64.98
2018-03-29T06:40:25.106Z,64.96
2018-03-29T06:42:03.329Z,64.96
2018-03-29T06:43:40.949Z,64.96
2018-03-29T06:45:19.885Z,64.94
2018-03-29T06:46:59.848Z,64.94
2018-03-29T06:48:37.298Z,64.93
2018-03-29T06:50:14.723Z,64.90
2018-03-29T06:51:53.764Z,64.86
2018-03-29T06:53:31.848Z,64.83
2018-03-29T06:55:09.332Z,64.82
2018-03-29T06:56:46.805Z,64.78
2018-03-29T06:58:24.425Z,64.78
2018-03-29T07:00:03.045Z,64.75
2018-03-29T07:01:41.199Z,64.72
2018-03-29T07:03:19.082Z,64.72
2018-03-29T07:04:57.759Z,64.70
2018-03-29T07:06:35.839Z,64.68
2018-03-29T07:08:13.873Z,64.66
2018-03-29T07:09:52.314Z,64.64
2018-03-29T07:11:30.433Z,64.62
2018-03-29T07:13:09.134Z,64.62
2018-03-29T07:14:46.353Z,64.60
2018-03-29T07:16:25.018Z,64.56
2018-03-29T07:18:02.704Z,64.54
2018-03-29T07:19:40.509Z,64.54
2018-03-29T07:21:18.064Z,64.56
2018-03-29T07:22:55.415Z,64.56
2018-03-29T07:24:32.962Z,64.53
2018-03-29T07:26:10.794Z,64.48
2018-03-29T07:27:48.756Z,64.47
2018-03-29T07:29:26.341Z,64.49
2018-03-29T07:31:04.454Z,64.50
2018-03-29T07:32:42.237Z,64.47
2018-03-29T07:34:19.636Z,64.50
2018-03-29T07:35:58.226Z,64.48
2018-03-29T07:37:35.920Z,64.47
2018-03-29T07:39:13.635Z,64.49
2018-03-29T07:40:51.014Z,64.49
2018-03-29T07:42:28.436Z,64.49
2018-03-29T07:44:06.069Z,64.51
2018-03-29T07:45:44.275Z,64.53
2018-03-29T07:47:21.830Z,64.55
2018-03-29T07:50:44.057Z,64.55
2018-03-29T07:52:21.741Z,64.54
2018-03-29T07:53:59.870Z,64.53
2018-03-29T07:55:37.284Z,64.55
2018-03-29T07:57:15.310Z,64.58
2018-03-29T07:58:52.973Z,64.58
2018-03-29T08:00:30.716Z,64.57
2018-03-29T08:02:08.022Z,64.54
2018-03-29T08:03:46.297Z,64.50
2018-03-29T08:05:23.628Z,64.46
2018-03-29T08:07:00.980Z,64.43
2018-03-29T08:08:38.376Z,64.43
2018-03-29T08:10:15.642Z,64.42
2018-03-29T08:11:53.673Z,64.41
2018-03-29T08:13:30.876Z,64.40
2018-03-29T08:15:08.045Z,64.43
2018-03-29T08:16:46.135Z,64.41
2018-03-29T08:18:24.277Z,64.40
2018-03-29T08:20:01.662Z,64.38
2018-03-29T08:21:39.045Z,64.39
2018-03-29T08:23:16.870Z,64.41
2018-03-29T08:24:54.383Z,64.40
2018-03-29T08:26:31.735Z,64.39
2018-03-29T08:28:09.017Z,64.39
2018-03-29T08:29:46.132Z,64.41
2018-03-29T08:31:23.729Z,64.42
2018-03-29T08:33:00.644Z,64.44
2018-03-29T08:34:37.627Z,64.44
2018-03-29T08:36:15.284Z,64.46
2018-03-29T08:37:52.399Z,64.44
2018-03-29T08:39:29.430Z,64.45
2018-03-29T08:41:06.564Z,64.45
2018-03-29T08:42:44.847Z,64.46
2018-03-29T08:44:21.814Z,64.47
2018-03-29T08:45:59.270Z,64.48
2018-03-29T08:47:36.321Z,64.49
2018-03-29T08:49:13.950Z,64.49
2018-03-29T08:50:51.265Z,64.49
2018-03-29T08:52:28.441Z,64.49
2018-03-29T08:54:05.644Z,64.50
2018-03-29T08:55:43.230Z,64.50
2018-03-29T08:57:20.409Z,64.52
2018-03-29T08:59:03.892Z,64.53
2018-03-29T09:00:42.747Z,64.48
2018-03-29T09:02:22.728Z,64.50
2018-03-29T09:04:00.470Z,64.52
2018-03-29T09:05:38.517Z,64.52
2018-03-29T09:07:15.765Z,64.51
2018-03-29T09:08:53.163Z,64.51
2018-03-29T09:12:08.894Z,64.53
2018-03-29T09:13:45.927Z,64.53
2018-03-29T09:15:28.600Z,64.53
2018-03-29T09:17:05.876Z,64.54
2018-03-29T09:18:43.191Z,64.55
2018-03-29T09:20:20.939Z,64.55
2018-03-29T09:21:58.925Z,64.56
2018-03-29T09:23:35.915Z,64.58
2018-03-29T09:25:13.881Z,64.60
2018-03-29T09:26:51.259Z,64.60
2018-03-29T09:28:28.729Z,64.61
2018-03-29T09:30:06.505Z,64.61
2018-03-29T09:31:44.218Z,64.60
2018-03-29T09:33:21.387Z,64.57
2018-03-29T09:34:59.002Z,64.54
2018-03-29T09:36:36.561Z,64.53
2018-03-29T09:38:13.769Z,64.53
2018-03-29T09:39:51.125Z,64.49
2018-03-29T09:41:28.468Z,64.47
2018-03-29T09:43:05.572Z,64.48
2018-03-29T09:44:42.708Z,64.52
2018-03-29T09:46:20.535Z,64.54
2018-03-29T09:47:57.586Z,64.55
2018-03-29T09:49:34.688Z,64.56
2018-03-29T09:51:12.593Z,64.57
2018-03-29T09:52:50.206Z,64.56
2018-03-29T09:54:27.162Z,64.58
2018-03-29T09:56:04.191Z,64.60
2018-03-29T09:57:41.860Z,64.63
2018-03-29T09:59:19.314Z,64.67
2018-03-29T10:01:00.451Z,64.64
2018-03-29T10:02:39.185Z,64.66
2018-03-29T10:04:16.266Z,64.65
2018-03-29T10:05:58.434Z,64.64
2018-03-29T10:07:35.476Z,64.65
2018-03-29T10:09:12.484Z,64.67
2018-03-29T10:10:49.580Z,64.69
2018-03-29T10:12:26.935Z,64.70
2018-03-29T10:14:03.878Z,64.70
2018-03-29T10:15:41.591Z,64.73
2018-03-29T10:17:19.399Z,64.73
2018-03-29T10:18:59.364Z,64.75
2018-03-29T10:20:36.656Z,64.75
2018-03-29T10:22:14.664Z,64.76
2018-03-29T10:23:52.186Z,64.76
2018-03-29T10:25:30.852Z,64.75
2018-03-29T10:27:08.707Z,64.74
2018-03-29T10:28:46.706Z,64.74
2018-03-29T10:30:26.323Z,64.74
2018-03-29T10:32:04.493Z,64.73
2018-03-29T10:33:42.358Z,64.72
2018-03-29T10:35:20.165Z,64.67
2018-03-29T10:36:57.851Z,64.64
2018-03-29T10:38:40.174Z,64.64
2018-03-29T10:40:19.457Z,64.59
2018-03-29T10:41:57.567Z,64.56
2018-03-29T10:43:34.596Z,64.54
2018-03-29T10:45:14.336Z,64.53
2018-03-29T10:46:52.200Z,64.52
2018-03-29T10:48:29.823Z,64.52
2018-03-29T10:50:07.710Z,64.53
2018-03-29T10:51:45.479Z,64.53
2018-03-29T10:53:22.688Z,64.55
2018-03-29T10:55:00.987Z,64.54
2018-03-29T10:56:41.679Z,64.55
2018-03-29T10:58:20.644Z,64.54
2018-03-29T10:59:58.105Z,64.51
2018-03-29T11:01:35.978Z,64.51
2018-03-29T11:03:14.050Z,64.51
2018-03-29T11:04:51.532Z,64.51
2018-03-29T11:06:29.469Z,64.55
2018-03-29T11:08:10.725Z,64.51
2018-03-29T11:09:48.499Z,64.49
2018-03-29T11:11:26.203Z,64.50
2018-03-29T11:13:03.101Z,64.52
2018-03-29T11:14:40.343Z,64.53
2018-03-29T11:16:20.945Z,64.55
2018-03-29T11:17:58.620Z,64.53
2018-03-29T11:19:36.061Z,64.50
2018-03-29T11:21:14.456Z,64.50
2018-03-29T11:22:52.241Z,64.50
2018-03-29T11:24:30.863Z,64.48
2018-03-29T11:26:08.540Z,64.44
2018-03-29T11:27:46.000Z,64.42
2018-03-29T11:29:24.006Z,64.37
2018-03-29T11:31:02.423Z,64.34
2018-03-29T11:32:39.676Z,64.34
2018-03-29T11:34:17.385Z,64.30
2018-03-29T11:35:55.023Z,64.23
2018-03-29T11:37:31.979Z,64.21
2018-03-29T11:39:09.290Z,64.22
2018-03-29T11:40:46.793Z,64.23
2018-03-29T11:42:25.204Z,64.24
2018-03-29T11:44:02.468Z,64.23
2018-03-29T11:45:39.909Z,64.22
2018-03-29T11:47:17.135Z,64.22
2018-03-29T11:48:54.721Z,64.25
2018-03-29T11:50:32.577Z,64.24
2018-03-29T11:52:10.915Z,64.25
2018-03-29T11:53:48.171Z,64.28
2018-03-29T11:55:25.536Z,64.27
2018-03-29T11:57:02.981Z,64.28
2018-03-29T11:58:40.689Z,64.30
2018-03-29T12:00:22.168Z,64.28
2018-03-29T12:02:03.699Z,64.27
2018-03-29T12:03:41.356Z,64.27
2018-03-29T12:05:18.873Z,64.28
2018-03-29T12:06:58.211Z,64.27
2018-03-29T12:08:35.895Z,64.24
2018-03-29T12:10:14.505Z,64.17
2018-03-29T12:11:55.588Z,64.13
2018-03-29T12:13:33.219Z,64.10
2018-03-29T12:15:11.003Z,64.07
2018-03-29T12:16:49.340Z,64.05
2018-03-29T12:18:27.142Z,64.04
2018-03-29T12:20:05.146Z,64.00
2018-03-29T12:21:42.512Z,63.99
2018-03-29T12:23:21.881Z,63.98
2018-03-29T12:24:59.149Z,63.96
2018-03-29T12:26:37.677Z,63.95
2018-03-29T12:28:15.018Z,63.89
2018-03-29T12:29:52.749Z,63.84
2018-03-29T12:31:31.485Z,63.80
2018-03-29T12:33:09.361Z,63.79
2018-03-29T12:34:47.636Z,63.79
2018-03-29T12:36:25.880Z,63.79
2018-03-29T12:38:04.037Z,63.79
2018-03-29T12:39:44.807Z,63.80
2018-03-29T12:41:28.613Z,63.79
2018-03-29T12:43:07.695Z,63.77
2018-03-29T12:44:44.753Z,63.79
2018-03-29T12:46:22.865Z,63.81
2018-03-29T12:48:01.008Z,63.82
2018-03-29T12:49:38.389Z,63.82
2018-03-29T12:51:15.833Z,63.84
2018-03-29T12:52:54.049Z,63.85
2018-03-29T12:54:45.422Z,63.87
2018-03-29T12:56:30.229Z,63.86
2018-03-29T12:58:11.585Z,63.86
2018-03-29T12:59:49.538Z,63.86
2018-03-29T13:01:30.835Z,63.88
2018-03-29T13:03:09.260Z,63.89
2018-03-29T13:04:46.348Z,63.90
2018-03-29T13:06:26.829Z,63.89
2018-03-29T13:08:14.898Z,63.91
2018-03-29T13:09:55.149Z,63.90
2018-03-29T13:11:40.732Z,63.90
2018-03-29T13:13:19.846Z,63.92
2018-03-29T13:14:57.941Z,63.93
2018-03-29T13:16:36.033Z,63.92
2018-03-29T13:19:48.416Z,63.89
2018-03-29T13:21:25.954Z,63.87
2018-03-29T13:23:04.364Z,63.84
2018-03-29T13:24:42.494Z,63.80
2018-03-29T13:26:19.795Z,63.79
2018-03-29T13:27:57.133Z,63.79
2018-03-29T13:29:34.696Z,63.80
2018-03-29T13:33:21.304Z,63.87
2018-03-29T13:34:58.965Z,63.85
2018-03-29T13:36:36.783Z,63.85
2018-03-29T13:38:15.052Z,63.87
2018-03-29T13:39:52.941Z,63.86
2018-03-29T13:41:30.672Z,63.82
2018-03-29T13:43:08.660Z,63.85
2018-03-29T13:44:46.996Z,63.81
2018-03-29T13:46:25.213Z,63.80
2018-03-29T13:48:03.072Z,63.81
2018-03-29T13:49:41.156Z,63.82
2018-03-29T13:51:20.177Z,63.82
2018-03-29T13:52:57.914Z,63.81
2018-03-29T13:54:35.238Z,63.82
2018-03-29T13:56:13.641Z,63.81
2018-03-29T13:57:51.148Z,63.78
2018-03-29T13:59:29.065Z,63.76
2018-03-29T14:01:07.649Z,63.76
2018-03-29T14:02:45.478Z,63.77
2018-03-29T14:04:22.996Z,63.80
2018-03-29T14:06:02.509Z,63.82
2018-03-29T14:07:40.929Z,63.81
2018-03-29T14:09:18.603Z,63.79
2018-03-29T14:10:55.708Z,63.77
2018-03-29T14:12:35.906Z,63.78
2018-03-29T14:14:13.070Z,63.77
2018-03-29T14:15:53.206Z,63.75
2018-03-29T14:17:30.213Z,63.75
2018-03-29T14:19:08.131Z,63.73
2018-03-29T14:20:45.852Z,63.69
2018-03-29T14:22:23.938Z,63.67
2018-03-29T14:24:01.594Z,63.67
2018-03-29T14:25:42.235Z,63.66
2018-03-29T14:27:21.520Z,63.64
2018-03-29T14:29:02.506Z,63.61
2018-03-29T14:30:40.229Z,63.59
2018-03-29T14:32:18.285Z,63.56
2018-03-29T14:33:57.474Z,63.53
2018-03-29T14:35:36.991Z,63.50
2018-03-29T14:37:15.672Z,63.49
2018-03-29T14:38:54.080Z,63.50
2018-03-29T14:40:31.569Z,63.47
2018-03-29T14:42:08.962Z,63.41
2018-03-29T14:43:46.850Z,63.39
2018-03-29T14:45:27.671Z,63.36
2018-03-29T14:47:04.692Z,63.32
2018-03-29T14:48:42.282Z,63.32
2018-03-29T14:50:19.495Z,63.30
2018-03-29T14:51:57.688Z,63.32
2018-03-29T14:53:36.014Z,63.32
2018-03-29T14:55:13.973Z,63.32
2018-03-29T14:56:51.391Z,63.31
2018-03-29T14:58:29.237Z,63.32
2018-03-29T15:00:06.884Z,63.34
2018-03-29T15:01:44.723Z,63.32
2018-03-29T15:03:21.874Z,63.31
2018-03-29T15:04:59.534Z,63.31
2018-03-29T15:06:37.379Z,63.29
2018-03-29T15:08:14.826Z,63.28
2018-03-29T15:09:52.510Z,63.28
2018-03-29T15:11:30.271Z,63.27
2018-03-29T15:13:07.320Z,63.27
2018-03-29T15:14:44.800Z,63.25
2018-03-29T15:16:23.054Z,63.26
2018-03-29T15:18:01.345Z,63.24
2018-03-29T15:19:38.492Z,63.21
2018-03-29T15:21:16.018Z,63.21
2018-03-29T15:22:53.182Z,63.20
2018-03-29T15:24:30.310Z,63.18
2018-03-29T15:26:07.399Z,63.17
2018-03-29T15:27:44.774Z,63.16
2018-03-29T15:29:22.618Z,63.14
2018-03-29T15:31:00.996Z,63.12
2018-03-29T15:32:38.905Z,63.09
2018-03-29T15:34:16.121Z,63.06
2018-03-29T15:35:54.246Z,63.04
2018-03-29T15:37:31.238Z,63.02
2018-03-29T15:39:09.467Z,63.00
2018-03-29T15:40:47.302Z,62.96
2018-03-29T15:42:25.728Z,62.94
2018-03-29T15:44:02.788Z,62.92
2018-03-29T15:45:40.994Z,62.88
2018-03-29T15:47:18.567Z,62.85
2018-03-29T15:48:55.794Z,62.83
2018-03-29T15:50:32.869Z,62.80
2018-03-29T15:52:09.947Z,62.77
2018-03-29T15:53:47.289Z,62.75
2018-03-29T15:55:27.973Z,62.74
2018-03-29T15:57:06.458Z,62.71
2018-03-29T15:58:43.428Z,62.68
2018-03-29T16:00:24.168Z,62.66
2018-03-29T16:02:02.219Z,62.64
2018-03-29T16:03:40.013Z,62.59
2018-03-29T16:05:17.231Z,62.57
2018-03-29T16:06:54.808Z,62.55
2018-03-29T16:08:32.322Z,62.53
2018-03-29T16:10:10.308Z,62.50
2018-03-29T16:11:47.822Z,62.47
2018-03-29T16:13:26.573Z,62.46
2018-03-29T16:15:04.830Z,62.43
2018-03-29T16:16:42.287Z,62.42
2018-03-29T16:18:19.706Z,62.40
2018-03-29T16:19:57.135Z,62.36
2018-03-29T16:21:34.307Z,62.33
2018-03-29T16:23:11.834Z,62.31
2018-03-29T16:24:49.520Z,62.30
2018-03-29T16:26:28.827Z,62.27
2018-03-29T16:28:07.112Z,62.25
2018-03-29T16:29:44.827Z,62.22
2018-03-29T16:31:22.102Z,62.20
2018-03-29T16:33:00.798Z,62.15
2018-03-29T16:34:38.588Z,62.11
2018-03-29T16:36:16.301Z,62.05
2018-03-29T16:37:53.349Z,62.01
2018-03-29T16:39:31.193Z,61.96
2018-03-29T16:41:09.866Z,61.91
2018-03-29T16:42:47.011Z,61.88
2018-03-29T16:44:24.093Z,61.85
2018-03-29T16:46:01.885Z,61.83
2018-03-29T16:47:39.037Z,61.80
2018-03-29T16:49:16.290Z,61.75
2018-03-29T16:50:54.325Z,61.71
2018-03-29T16:52:33.207Z,61.66
2018-03-29T16:54:11.096Z,61.62
2018-03-29T16:55:48.249Z,61.58
2018-03-29T16:57:25.337Z,61.57
2018-03-29T16:59:03.553Z,61.54
2018-03-29T17:00:42.068Z,61.52
2018-03-29T17:02:19.616Z,61.49
2018-03-29T17:03:57.172Z,61.46
2018-03-29T17:05:34.871Z,61.43
2018-03-29T17:07:12.528Z,61.39
2018-03-29T17:08:49.807Z,61.34
2018-03-29T17:10:27.604Z,61.29
2018-03-29T17:12:08.526Z,61.28
2018-03-29T17:13:45.988Z,61.25
2018-03-29T17:15:25.893Z,61.22
2018-03-29T17:17:09.220Z,61.20
2018-03-29T17:18:46.693Z,61.17
2018-03-29T17:20:26.684Z,61.15
2018-03-29T17:22:05.283Z,61.11
2018-03-29T17:23:42.420Z,61.08
2018-03-29T17:25:19.916Z,61.06
2018-03-29T17:26:57.160Z,61.02
2018-03-29T17:28:34.317Z,60.98
2018-03-29T17:30:11.631Z,60.97
2018-03-29T17:31:49.857Z,60.94
2018-03-29T17:33:27.138Z,60.91
2018-03-29T17:35:06.239Z,60.88
2018-03-29T17:36:43.347Z,60.84
2018-03-29T17:38:21.385Z,60.79
2018-03-29T17:40:00.851Z,60.74
2018-03-29T17:41:38.344Z,60.71
2018-03-29T17:43:16.057Z,60.69
2018-03-29T17:44:53.927Z,60.65
2018-03-29T17:47:59.787Z,60.58
2018-03-29T17:49:37.449Z,60.52
2018-03-29T17:51:14.673Z,60.47
2018-03-29T17:52:53.506Z,60.45
2018-03-29T17:54:31.892Z,60.40
2018-03-29T17:56:13.716Z,60.35
2018-03-29T17:57:53.340Z,60.30
2018-03-29T17:59:31.286Z,60.28
2018-03-29T18:01:09.028Z,60.26
2018-03-29T18:02:46.492Z,60.23
2018-03-29T18:04:24.674Z,60.20
2018-03-29T18:06:03.036Z,60.15
2018-03-29T18:07:40.446Z,60.10
2018-03-29T18:09:18.599Z,60.06
2018-03-29T18:10:56.510Z,60.02
2018-03-29T18:12:33.825Z,59.98
2018-03-29T18:14:11.005Z,59.93
2018-03-29T18:15:49.945Z,59.88
2018-03-29T18:17:27.418Z,59.84
2018-03-29T18:19:05.166Z,59.78
2018-03-29T18:20:43.253Z,59.72
2018-03-29T18:22:21.800Z,59.66
2018-03-29T18:23:58.984Z,59.59
2018-03-29T18:25:36.004Z,59.54
2018-03-29T18:27:14.234Z,59.47
2018-03-29T18:28:52.087Z,59.40
2018-03-29T18:30:31.110Z,59.38
2018-03-29T18:32:08.186Z,59.35
2018-03-29T18:33:45.481Z,59.33
2018-03-29T18:35:22.870Z,59.32
2018-03-29T18:37:01.754Z,59.29
2018-03-29T18:38:39.108Z,59.27
2018-03-29T18:40:17.294Z,59.25
2018-03-29T18:41:54.951Z,59.23
2018-03-29T18:43:32.264Z,59.20
2018-03-29T18:45:09.419Z,59.15
2018-03-29T18:46:47.720Z,59.08
2018-03-29T18:48:25.375Z,59.01
2018-03-29T18:50:03.506Z,58.94
2018-03-29T18:53:34.205Z,58.82
2018-03-29T18:55:11.203Z,58.76
2018-03-29T18:56:48.497Z,58.74
2018-03-29T18:58:25.717Z,58.72
2018-03-29T19:00:06.027Z,58.69
2018-03-29T19:01:43.340Z,58.69
2018-03-29T19:03:20.625Z,58.67
2018-03-29T19:04:58.056Z,58.66
2018-03-29T19:06:36.336Z,58.63
2018-03-29T19:08:13.959Z,58.60
2018-03-29T19:09:51.896Z,58.56
2018-03-29T19:11:29.167Z,58.54
2018-03-29T19:13:07.242Z,58.49
2018-03-29T19:14:44.240Z,58.45
2018-03-29T19:16:21.773Z,58.41
2018-03-29T19:17:59.179Z,58.37
2018-03-29T19:19:36.219Z,58.34
2018-03-29T19:21:13.639Z,58.32
2018-03-29T19:22:50.846Z,58.27
2018-03-29T19:24:28.840Z,58.22
2018-03-29T19:26:06.994Z,58.18
2018-03-29T19:27:44.240Z,58.11
2018-03-29T19:29:22.333Z,58.03
2018-03-29T19:31:01.705Z,57.94
2018-03-29T19:32:38.875Z,57.84
2018-03-29T19:34:19.014Z,57.73
2018-03-29T19:35:56.342Z,57.65
2018-03-29T19:37:34.398Z,57.57
2018-03-29T19:39:13.500Z,57.49
2018-03-29T19:40:51.829Z,57.44
2018-03-29T19:42:29.794Z,57.40
2018-03-29T19:44:09.273Z,57.35
2018-03-29T19:45:47.888Z,57.31
2018-03-29T19:47:26.729Z,57.29
2018-03-29T19:49:08.982Z,57.26
2018-03-29T19:50:47.500Z,57.23
2018-03-29T19:52:26.053Z,57.14
2018-03-29T19:54:04.996Z,57.17
2018-03-29T19:55:48.369Z,57.15
2018-03-29T19:57:27.996Z,57.12
2018-03-29T19:59:05.401Z,57.09
2018-03-29T20:00:43.090Z,57.06
2018-03-29T20:02:20.099Z,57.03
2018-03-29T20:03:57.422Z,57.01
2018-03-29T20:05:35.819Z,56.98
2018-03-29T20:07:19.291Z,56.97
2018-03-29T20:08:56.645Z,56.93
2018-03-29T20:10:33.773Z,56.92
2018-03-29T20:12:10.821Z,56.90
2018-03-29T20:13:48.302Z,56.89
2018-03-29T20:15:27.773Z,56.87
2018-03-29T20:17:05.342Z,56.86
2018-03-29T20:18:42.581Z,56.84
2018-03-29T20:20:20.478Z,56.83
2018-03-29T20:21:58.295Z,56.82
2018-03-29T20:23:35.864Z,56.80
2018-03-29T20:25:12.888Z,56.77
2018-03-29T20:26:51.230Z,56.76
2018-03-29T20:28:28.713Z,56.73
2018-03-29T20:30:07.031Z,56.71
2018-03-29T20:31:44.398Z,56.68
2018-03-29T20:33:21.415Z,56.66
2018-03-29T20:34:59.198Z,56.64
2018-03-29T20:36:36.259Z,56.62
2018-03-29T20:38:13.998Z,56.61
2018-03-29T20:39:51.248Z,56.59
2018-03-29T20:41:28.658Z,56.58
2018-03-29T20:43:06.667Z,56.57
2018-03-29T20:44:43.680Z,56.54
2018-03-29T20:46:20.927Z,56.52
2018-03-29T20:47:58.657Z,56.49
2018-03-29T20:49:36.453Z,56.45
2018-03-29T20:51:13.483Z,56.43
2018-03-29T20:52:50.490Z,56.41
2018-03-29T20:54:28.035Z,56.38
2018-03-29T20:56:05.162Z,56.36
2018-03-29T20:57:43.030Z,56.34
2018-03-29T20:59:20.020Z,56.33
2018-03-29T21:00:57.342Z,56.33
2018-03-29T21:02:34.565Z,56.31
2018-03-29T21:04:11.566Z,56.29
2018-03-29T21:05:49.172Z,56.28
2018-03-29T21:07:26.217Z,56.26
2018-03-29T21:09:06.400Z,56.25
2018-03-29T21:10:45.540Z,56.22
2018-03-29T21:12:22.788Z,56.22
2018-03-29T21:14:01.110Z,56.21
2018-03-29T21:15:39.468Z,56.20
2018-03-29T21:17:18.793Z,56.18